Time;durP1;ratioP1;P1;durP2;ratioP2;P2;SDS_P1;SDS_P2;PMS_P1;PMS_P2;Temp;Humidity;BMP_temperature;BMP_pressure;BME280_temperature;BME280_humidity;BME280_pressure;Samples;Min_cycle;Max_cycle;Signal;HPM_P1;HPM_P2
2022/04/14 00:01:13;;;;;;;;;;;22.90;43.40;;;;;;6275591;28;21054;-46
2022/04/14 00:04:14;;;;;;;;;;;22.90;43.40;;;;;;6269505;28;20933;-48
2022/04/14 00:07:16;;;;;;;;;;;22.70;43.30;;;;;;6268563;28;20005;-47
2022/04/14 00:10:17;;;;;;;;;;;22.70;43.30;;;;;;6262197;28;19928;-47
2022/04/14 00:13:18;;;;;;;;;;;22.80;43.60;;;;;;6278741;27;20504;-47
2022/04/14 00:16:21;;;;;;;;;;;22.70;43.40;;;;;;6280554;27;19935;-46
2022/04/14 00:19:22;;;;;;;;;;;22.80;43.50;;;;;;6282038;28;19934;-51
2022/04/14 00:22:23;;;;;;;;;;;22.80;43.50;;;;;;6275839;28;20037;-50
2022/04/14 00:25:25;;;;;;;;;;;22.80;43.60;;;;;;6285847;28;19995;-49
2022/04/14 00:28:26;;;;;;;;;;;22.80;43.60;;;;;;6285705;28;19932;-51
2022/04/14 00:31:28;;;;;;;;;;;22.70;43.50;;;;;;6295854;28;20819;-48
2022/04/14 00:34:30;;;;;;;;;;;22.80;43.60;;;;;;6285344;28;19928;-47
2022/04/14 00:37:31;;;;;;;;;;;22.80;43.60;;;;;;6277273;28;19928;-46
2022/04/14 00:40:32;;;;;;;;;;;22.70;43.60;;;;;;6283835;28;20853;-49
2022/04/14 00:43:34;;;;;;;;;;;22.50;43.50;;;;;;6290971;27;19959;-48
2022/04/14 00:46:36;;;;;;;;;;;22.60;43.60;;;;;;6272377;28;20987;-47
2022/04/14 00:49:38;;;;;;;;;;;22.70;43.60;;;;;;6289894;28;19928;-46
2022/04/14 00:52:43;;;;;;;;;;;22.70;43.70;;;;;;6295522;28;19941;-49
2022/04/14 00:55:44;;;;;;;;;;;22.70;43.70;;;;;;6275717;28;19927;-49
2022/04/14 00:58:46;;;;;;;;;;;22.70;43.70;;;;;;6289419;28;20046;-45
2022/04/14 01:01:48;;;;;;;;;;;22.60;43.70;;;;;;6288308;28;20509;-50
2022/04/14 01:04:49;;;;;;;;;;;22.50;43.60;;;;;;6296166;28;19945;-48
2022/04/14 01:07:51;;;;;;;;;;;22.60;43.70;;;;;;6278790;28;20088;-49
2022/04/14 01:10:54;;;;;;;;;;;22.70;43.80;;;;;;6274940;28;19963;-47
2022/04/14 01:13:55;;;;;;;;;;;22.40;43.60;;;;;;6277523;28;20450;-51
2022/04/14 01:16:58;;;;;;;;;;;22.50;43.70;;;;;;6294333;28;20263;-47
2022/04/14 01:20:00;;;;;;;;;;;22.60;43.70;;;;;;6270960;28;20168;-49
2022/04/14 01:23:03;;;;;;;;;;;22.50;43.70;;;;;;6275577;28;20420;-48
2022/04/14 01:26:07;;;;;;;;;;;22.50;43.70;;;;;;6289927;27;19965;-46
2022/04/14 01:29:18;;;;;;;;;;;22.50;43.70;;;;;;6284882;28;20602;-48
2022/04/14 01:32:20;;;;;;;;;;;22.50;43.70;;;;;;6257106;28;20014;-46
2022/04/14 01:35:22;;;;;;;;;;;22.40;43.60;;;;;;6282714;27;20233;-46
2022/04/14 01:38:23;;;;;;;;;;;22.40;43.60;;;;;;6291403;28;20194;-51
2022/04/14 01:41:25;;;;;;;;;;;22.30;43.60;;;;;;6282988;28;19934;-47
2022/04/14 01:44:26;;;;;;;;;;;22.40;43.60;;;;;;6284501;28;22647;-47
2022/04/14 01:47:27;;;;;;;;;;;22.40;43.70;;;;;;6286797;28;19930;-48
2022/04/14 01:50:29;;;;;;;;;;;22.50;43.70;;;;;;6301586;28;20030;-48
2022/04/14 01:53:30;;;;;;;;;;;22.40;43.70;;;;;;6288911;28;19945;-46
2022/04/14 01:56:33;;;;;;;;;;;22.40;43.70;;;;;;6287781;28;20212;-46
2022/04/14 01:59:34;;;;;;;;;;;22.30;43.60;;;;;;6260226;28;20386;-48
2022/04/14 02:02:35;;;;;;;;;;;22.30;43.60;;;;;;6266598;28;20038;-47
2022/04/14 02:05:37;;;;;;;;;;;22.50;43.70;;;;;;6266163;28;21565;-46
2022/04/14 02:08:38;;;;;;;;;;;22.40;43.60;;;;;;6278180;27;20151;-49
2022/04/14 02:11:40;;;;;;;;;;;22.40;43.60;;;;;;6266442;27;20354;-48
2022/04/14 02:14:43;;;;;;;;;;;22.50;43.60;;;;;;6271011;28;20043;-46
2022/04/14 02:17:44;;;;;;;;;;;22.40;43.60;;;;;;6276713;28;19928;-46
2022/04/14 02:20:46;;;;;;;;;;;22.40;43.60;;;;;;6285905;27;19927;-47
2022/04/14 02:23:47;;;;;;;;;;;22.50;43.60;;;;;;6276861;28;20721;-50
2022/04/14 02:26:49;;;;;;;;;;;22.40;43.50;;;;;;6279007;28;20042;-47
2022/04/14 02:29:50;;;;;;;;;;;22.50;43.60;;;;;;6294350;28;19934;-47
2022/04/14 02:32:52;;;;;;;;;;;22.40;43.50;;;;;;6303133;28;19995;-48
2022/04/14 02:35:53;;;;;;;;;;;22.40;43.50;;;;;;6294193;27;20063;-47
2022/04/14 02:38:54;;;;;;;;;;;22.30;43.40;;;;;;6282546;27;20038;-46
2022/04/14 02:41:56;;;;;;;;;;;22.40;43.40;;;;;;6286036;27;19969;-49
2022/04/14 02:44:58;;;;;;;;;;;22.70;43.60;;;;;;6287490;28;20039;-48
2022/04/14 02:47:59;;;;;;;;;;;22.20;43.40;;;;;;6283084;28;20224;-48
2022/04/14 02:51:00;;;;;;;;;;;22.50;43.50;;;;;;6276086;28;20060;-46
2022/04/14 02:54:02;;;;;;;;;;;22.40;43.40;;;;;;6282306;28;20222;-46
2022/04/14 02:57:04;;;;;;;;;;;22.50;43.50;;;;;;6290523;27;20284;-46
2022/04/14 03:00:09;;;;;;;;;;;22.40;43.40;;;;;;6279430;28;20320;-48
2022/04/14 03:03:10;;;;;;;;;;;22.40;43.50;;;;;;6290732;28;19923;-46
2022/04/14 03:06:12;;;;;;;;;;;22.40;43.40;;;;;;6290334;28;20462;-47
2022/04/14 03:09:13;;;;;;;;;;;22.40;43.40;;;;;;6274003;28;20853;-49
2022/04/14 03:12:15;;;;;;;;;;;22.40;43.50;;;;;;6286906;28;19935;-49
2022/04/14 03:15:16;;;;;;;;;;;22.50;43.50;;;;;;6287835;28;20039;-47
2022/04/14 03:18:18;;;;;;;;;;;22.40;43.40;;;;;;6284613;28;20537;-47
2022/04/14 03:21:19;;;;;;;;;;;22.40;43.50;;;;;;6279717;28;19966;-47
2022/04/14 03:24:20;;;;;;;;;;;22.40;43.40;;;;;;6294014;28;19997;-58
2022/04/14 03:27:22;;;;;;;;;;;22.50;43.40;;;;;;6300048;28;20045;-50
2022/04/14 03:30:24;;;;;;;;;;;22.40;43.40;;;;;;6291954;28;20074;-49
2022/04/14 03:33:25;;;;;;;;;;;22.40;43.30;;;;;;6300560;27;19992;-46
2022/04/14 03:36:26;;;;;;;;;;;22.50;43.40;;;;;;6294859;28;19928;-46
2022/04/14 03:39:28;;;;;;;;;;;22.50;43.30;;;;;;6289038;28;19927;-47
2022/04/14 03:42:29;;;;;;;;;;;22.30;43.30;;;;;;6285585;28;20719;-45
2022/04/14 03:45:31;;;;;;;;;;;22.30;43.20;;;;;;6291078;28;20371;-46
2022/04/14 03:48:33;;;;;;;;;;;22.50;43.30;;;;;;6294950;28;19958;-48
2022/04/14 03:51:34;;;;;;;;;;;22.40;43.30;;;;;;6305504;27;19949;-45
2022/04/14 03:54:36;;;;;;;;;;;22.50;43.40;;;;;;6303743;28;19919;-48
2022/04/14 03:57:37;;;;;;;;;;;22.40;43.30;;;;;;6298865;27;20231;-46
2022/04/14 04:00:39;;;;;;;;;;;22.50;43.40;;;;;;6272956;28;20307;-45
2022/04/14 04:03:40;;;;;;;;;;;22.40;43.30;;;;;;6278109;28;20380;-45
2022/04/14 04:06:42;;;;;;;;;;;22.50;43.40;;;;;;6271328;28;20279;-47
2022/04/14 04:09:43;;;;;;;;;;;22.50;43.40;;;;;;6282130;28;20094;-45
2022/04/14 04:12:45;;;;;;;;;;;22.40;43.30;;;;;;6292843;27;19936;-47
2022/04/14 04:15:46;;;;;;;;;;;22.40;43.30;;;;;;6293694;28;19919;-50
2022/04/14 04:18:48;;;;;;;;;;;22.20;43.20;;;;;;6302167;27;19931;-48
2022/04/14 04:21:49;;;;;;;;;;;22.40;43.40;;;;;;6292429;27;19931;-47
2022/04/14 04:24:51;;;;;;;;;;;22.30;43.30;;;;;;6289235;28;20048;-47
2022/04/14 04:27:52;;;;;;;;;;;22.30;43.40;;;;;;6275296;28;20533;-50
2022/04/14 04:30:54;;;;;;;;;;;22.30;43.40;;;;;;6273705;28;20498;-46
2022/04/14 04:33:55;;;;;;;;;;;22.40;43.50;;;;;;6287624;27;20643;-45
2022/04/14 04:36:57;;;;;;;;;;;22.40;43.50;;;;;;6270482;28;20026;-48
2022/04/14 04:39:58;;;;;;;;;;;22.40;43.50;;;;;;6260215;28;20038;-49
2022/04/14 04:43:00;;;;;;;;;;;22.30;43.50;;;;;;6274139;28;20405;-46
2022/04/14 04:46:02;;;;;;;;;;;22.30;43.40;;;;;;6272485;27;20531;-46
2022/04/14 04:49:04;;;;;;;;;;;22.20;43.40;;;;;;6295441;28;20004;-46
2022/04/14 04:52:06;;;;;;;;;;;22.50;43.60;;;;;;6290795;28;19963;-46
2022/04/14 04:55:07;;;;;;;;;;;22.30;43.40;;;;;;6276663;28;20051;-46
2022/04/14 04:58:09;;;;;;;;;;;22.30;43.50;;;;;;6262051;28;20038;-46
2022/04/14 05:01:10;;;;;;;;;;;22.10;43.40;;;;;;6280544;28;19932;-47
2022/04/14 05:04:12;;;;;;;;;;;22.40;43.50;;;;;;6275585;28;20200;-49
2022/04/14 05:07:13;;;;;;;;;;;22.10;43.40;;;;;;6281550;28;20686;-47
2022/04/14 05:10:15;;;;;;;;;;;22.20;43.40;;;;;;6302725;28;20862;-46
2022/04/14 05:13:17;;;;;;;;;;;22.10;43.40;;;;;;6294577;28;20630;-46
2022/04/14 05:16:18;;;;;;;;;;;22.20;43.40;;;;;;6284403;28;19919;-48
2022/04/14 05:19:20;;;;;;;;;;;22.20;43.40;;;;;;6303719;27;19934;-46
2022/04/14 05:22:21;;;;;;;;;;;22.20;43.50;;;;;;6285334;27;20017;-46
2022/04/14 05:25:23;;;;;;;;;;;22.20;43.40;;;;;;6297929;28;20376;-47
2022/04/14 05:28:25;;;;;;;;;;;22.30;43.50;;;;;;6294820;27;20005;-48
2022/04/14 05:31:28;;;;;;;;;;;22.30;43.50;;;;;;6291004;27;19955;-46
2022/04/14 05:34:29;;;;;;;;;;;22.20;43.50;;;;;;6289992;28;20038;-46
2022/04/14 05:37:31;;;;;;;;;;;22.10;43.40;;;;;;6276493;28;19931;-48
2022/04/14 05:40:33;;;;;;;;;;;22.20;43.50;;;;;;6272277;28;19919;-48
2022/04/14 05:43:35;;;;;;;;;;;22.00;43.40;;;;;;6269441;27;19928;-48
2022/04/14 05:46:36;;;;;;;;;;;22.20;43.50;;;;;;6280071;27;19983;-49
2022/04/14 05:49:38;;;;;;;;;;;22.00;43.30;;;;;;6276573;27;20240;-46
2022/04/14 05:52:39;;;;;;;;;;;22.20;43.40;;;;;;6287442;27;19965;-48
2022/04/14 05:55:41;;;;;;;;;;;22.20;43.40;;;;;;6275949;27;19935;-48
2022/04/14 05:58:43;;;;;;;;;;;22.10;43.20;;;;;;6288978;27;20793;-49
2022/04/14 06:01:44;;;;;;;;;;;22.20;43.10;;;;;;6289675;27;19934;-51
2022/04/14 06:04:46;;;;;;;;;;;22.40;43.20;;;;;;6291719;27;19927;-47
2022/04/14 06:07:47;;;;;;;;;;;22.30;43.20;;;;;;6290591;27;20479;-47
2022/04/14 06:10:50;;;;;;;;;;;22.30;43.10;;;;;;6296349;27;19935;-46
2022/04/14 06:13:52;;;;;;;;;;;22.30;43.10;;;;;;6275557;27;20749;-47
2022/04/14 06:16:54;;;;;;;;;;;22.60;43.20;;;;;;6245575;28;19928;-47
2022/04/14 06:19:56;;;;;;;;;;;22.40;43.10;;;;;;6283555;27;19928;-49
2022/04/14 06:22:58;;;;;;;;;;;22.40;43.10;;;;;;6268597;28;20935;-50
2022/04/14 06:26:00;;;;;;;;;;;22.40;43.00;;;;;;6280534;27;20273;-46
2022/04/14 06:29:02;;;;;;;;;;;22.20;42.80;;;;;;6256719;27;20679;-51
2022/04/14 06:32:04;;;;;;;;;;;22.50;43.00;;;;;;6255021;27;21076;-48
2022/04/14 06:35:07;;;;;;;;;;;22.50;42.90;;;;;;6224115;27;19928;-49
2022/04/14 06:38:08;;;;;;;;;;;22.60;42.90;;;;;;6224698;27;21150;-53
2022/04/14 06:41:09;;;;;;;;;;;22.50;42.80;;;;;;6259019;27;20042;-49
2022/04/14 06:44:11;;;;;;;;;;;22.60;42.90;;;;;;6209901;27;19934;-50
2022/04/14 06:47:13;;;;;;;;;;;22.60;42.70;;;;;;6218313;27;20921;-48
2022/04/14 06:50:14;;;;;;;;;;;22.50;42.70;;;;;;6216873;28;19936;-50
2022/04/14 06:53:16;;;;;;;;;;;22.70;42.70;;;;;;6201355;28;22983;-49
2022/04/14 06:56:17;;;;;;;;;;;22.80;42.80;;;;;;6203521;27;20793;-47
2022/04/14 06:59:19;;;;;;;;;;;22.70;42.70;;;;;;6177918;27;21300;-48
2022/04/14 07:02:24;;;;;;;;;;;22.50;42.60;;;;;;6184423;28;19934;-51
2022/04/14 07:05:26;;;;;;;;;;;22.70;42.70;;;;;;6135183;28;19962;-48
2022/04/14 07:08:28;;;;;;;;;;;22.70;42.80;;;;;;6161386;28;20002;-49
2022/04/14 07:11:29;;;;;;;;;;;22.80;42.70;;;;;;6175761;27;19934;-51
2022/04/14 07:14:31;;;;;;;;;;;22.70;42.70;;;;;;6156546;28;20043;-48
2022/04/14 07:17:34;;;;;;;;;;;22.70;42.60;;;;;;6160071;27;19944;-51
2022/04/14 07:20:35;;;;;;;;;;;22.80;42.70;;;;;;6137109;27;20016;-51
2022/04/14 07:23:37;;;;;;;;;;;22.90;42.70;;;;;;6146654;28;19986;-47
2022/04/14 07:26:39;;;;;;;;;;;22.80;42.60;;;;;;6191414;27;19934;-51
2022/04/14 07:29:41;;;;;;;;;;;22.90;42.60;;;;;;6138859;27;20008;-47
2022/04/14 07:32:43;;;;;;;;;;;22.90;42.50;;;;;;6131373;27;19934;-52
2022/04/14 07:35:45;;;;;;;;;;;22.90;42.50;;;;;;6164796;27;19928;-47
2022/04/14 07:38:47;;;;;;;;;;;22.90;42.50;;;;;;6162393;27;19940;-49
2022/04/14 07:41:48;;;;;;;;;;;22.90;42.50;;;;;;6110084;28;20001;-48
2022/04/14 07:44:50;;;;;;;;;;;22.90;42.40;;;;;;6160050;27;19954;-49
2022/04/14 07:47:51;;;;;;;;;;;22.90;42.40;;;;;;6195580;27;19928;-49
2022/04/14 07:50:53;;;;;;;;;;;23.90;42.90;;;;;;6140773;27;19931;-52
2022/04/14 07:53:54;;;;;;;;;;;22.90;42.40;;;;;;6126864;28;19953;-47
2022/04/14 07:56:56;;;;;;;;;;;23.40;42.70;;;;;;6155260;27;20952;-47
2022/04/14 08:00:01;;;;;;;;;;;23.10;42.40;;;;;;6154598;27;20059;-51
2022/04/14 08:03:13;;;;;;;;;;;23.00;42.50;;;;;;6119320;27;19928;-47
2022/04/14 08:06:15;;;;;;;;;;;23.10;42.50;;;;;;6088308;28;20153;-46
2022/04/14 08:09:17;;;;;;;;;;;23.10;42.50;;;;;;6162875;27;19940;-48
2022/04/14 08:12:19;;;;;;;;;;;23.10;42.40;;;;;;6135422;28;19927;-49
2022/04/14 08:15:21;;;;;;;;;;;23.30;42.50;;;;;;6112379;28;19928;-48
2022/04/14 08:18:22;;;;;;;;;;;23.20;42.50;;;;;;6145988;28;21842;-49
2022/04/14 08:21:24;;;;;;;;;;;23.10;42.30;;;;;;6155509;27;20039;-48
2022/04/14 08:24:27;;;;;;;;;;;23.20;42.40;;;;;;6189663;27;19928;-50
2022/04/14 08:27:28;;;;;;;;;;;23.10;42.40;;;;;;6172008;28;19928;-47
2022/04/14 08:30:31;;;;;;;;;;;23.20;42.40;;;;;;6185192;27;19928;-47
2022/04/14 08:33:33;;;;;;;;;;;23.20;42.40;;;;;;6188370;27;20051;-48
2022/04/14 08:36:35;;;;;;;;;;;23.20;42.40;;;;;;6185339;27;19971;-50
2022/04/14 08:39:36;;;;;;;;;;;23.20;43.00;;;;;;6170522;28;19934;-47
2022/04/14 08:42:39;;;;;;;;;;;23.20;42.40;;;;;;6198613;27;19927;-46
2022/04/14 08:45:44;;;;;;;;;;;23.20;42.40;;;;;;6196906;27;19934;-49
2022/04/14 08:48:48;;;;;;;;;;;23.20;42.40;;;;;;6177787;27;21608;-47
2022/04/14 08:51:49;;;;;;;;;;;23.30;42.40;;;;;;6160853;28;20095;-49
2022/04/14 08:54:52;;;;;;;;;;;23.30;42.40;;;;;;6168992;27;19938;-50
2022/04/14 08:57:54;;;;;;;;;;;23.30;42.50;;;;;;6159865;27;19934;-48
2022/04/14 09:00:57;;;;;;;;;;;23.20;42.30;;;;;;6160333;27;20045;-47
2022/04/14 09:04:19;;;;;;;;;;;23.30;42.40;;;;;;6128321;28;19932;-47
2022/04/14 09:07:21;;;;;;;;;;;23.30;42.40;;;;;;6169831;28;22334;-51
2022/04/14 09:10:22;;;;;;;;;;;23.40;42.40;;;;;;6191056;27;20911;-51
2022/04/14 09:13:24;;;;;;;;;;;23.30;42.40;;;;;;6192545;27;20309;-48
2022/04/14 09:16:26;;;;;;;;;;;23.40;42.40;;;;;;6188536;27;19928;-49
2022/04/14 09:19:28;;;;;;;;;;;23.30;42.30;;;;;;6161346;28;19928;-47
2022/04/14 09:22:30;;;;;;;;;;;23.40;42.40;;;;;;6180319;27;19927;-47
2022/04/14 09:25:31;;;;;;;;;;;23.40;42.40;;;;;;6186724;27;19933;-47
2022/04/14 09:28:33;;;;;;;;;;;23.30;42.40;;;;;;6166563;27;19928;-47
2022/04/14 09:31:46;;;;;;;;;;;23.40;42.40;;;;;;6195210;27;20046;-49
2022/04/14 09:34:50;;;;;;;;;;;23.40;42.40;;;;;;6175319;27;20058;-46
2022/04/14 09:37:59;;;;;;;;;;;23.40;42.40;;;;;;6169246;27;20236;-47
2022/04/14 09:41:00;;;;;;;;;;;23.60;42.50;;;;;;6205165;27;20391;-47
2022/04/14 09:44:03;;;;;;;;;;;23.50;42.40;;;;;;6129219;27;19928;-48
2022/04/14 09:47:04;;;;;;;;;;;23.30;42.30;;;;;;6163087;27;19928;-49
2022/04/14 09:50:23;;;;;;;;;;;23.50;42.40;;;;;;6189527;27;20094;-48
2022/04/14 09:53:30;;;;;;;;;;;23.50;42.40;;;;;;6191556;27;22492;-46
2022/04/14 09:56:40;;;;;;;;;;;23.60;42.40;;;;;;6173514;27;20053;-47
2022/04/14 09:59:41;;;;;;;;;;;23.60;42.40;;;;;;6173442;28;19927;-48
2022/04/14 10:02:43;;;;;;;;;;;23.50;42.40;;;;;;6162371;28;19928;-47
2022/04/14 10:05:46;;;;;;;;;;;23.60;42.40;;;;;;6162461;27;21045;-49
2022/04/14 10:08:48;;;;;;;;;;;23.60;42.40;;;;;;6160907;27;20055;-47
2022/04/14 10:11:49;;;;;;;;;;;23.60;42.40;;;;;;6178370;27;19927;-44
2022/04/14 10:14:58;;;;;;;;;;;23.70;42.40;;;;;;6125266;27;20611;-45
2022/04/14 10:18:03;;;;;;;;;;;23.70;42.40;;;;;;6169673;28;20211;-45
2022/04/14 10:21:06;;;;;;;;;;;23.70;42.40;;;;;;6182278;28;19935;-47
2022/04/14 10:24:08;;;;;;;;;;;23.70;42.40;;;;;;6192829;27;20980;-49
2022/04/14 10:27:16;;;;;;;;;;;23.70;42.40;;;;;;6196215;28;19928;-47
2022/04/14 10:30:20;;;;;;;;;;;23.60;42.30;;;;;;6181475;28;19928;-49
2022/04/14 10:33:22;;;;;;;;;;;23.70;42.40;;;;;;6146036;28;21598;-51
2022/04/14 10:36:24;;;;;;;;;;;23.70;42.40;;;;;;6182354;28;21587;-49
2022/04/14 10:39:26;;;;;;;;;;;23.60;42.30;;;;;;6188932;28;19934;-52
2022/04/14 10:42:29;;;;;;;;;;;23.70;42.40;;;;;;6217118;27;19935;-50
2022/04/14 10:45:32;;;;;;;;;;;23.70;42.40;;;;;;6196323;27;20042;-51
2022/04/14 10:48:34;;;;;;;;;;;23.70;42.40;;;;;;6202552;27;19928;-54
2022/04/14 10:51:36;;;;;;;;;;;23.80;42.40;;;;;;6218299;27;19953;-48
2022/04/14 10:54:53;;;;;;;;;;;23.70;42.40;;;;;;6203426;27;20301;-50
2022/04/14 10:57:54;;;;;;;;;;;23.80;42.50;;;;;;6213426;27;19932;-50
2022/04/14 11:00:56;;;;;;;;;;;23.80;42.40;;;;;;6183376;27;19931;-50
2022/04/14 11:03:57;;;;;;;;;;;23.80;42.40;;;;;;6229559;27;21012;-50
2022/04/14 11:07:01;;;;;;;;;;;23.80;42.40;;;;;;6219204;27;21765;-51
2022/04/14 11:10:11;;;;;;;;;;;23.80;42.50;;;;;;6199319;27;20050;-54
2022/04/14 11:13:13;;;;;;;;;;;23.80;42.40;;;;;;6208907;27;19931;-48
2022/04/14 11:16:26;;;;;;;;;;;23.80;42.40;;;;;;6245933;27;21037;-46
2022/04/14 11:19:28;;;;;;;;;;;23.70;42.40;;;;;;6223934;27;19950;-45
2022/04/14 11:22:50;;;;;;;;;;;23.80;42.40;;;;;;6222458;27;19928;-46
2022/04/14 11:25:52;;;;;;;;;;;23.80;42.50;;;;;;6207466;28;19928;-46
2022/04/14 11:28:56;;;;;;;;;;;23.80;42.50;;;;;;6213959;28;20000;-50
2022/04/14 11:31:58;;;;;;;;;;;23.80;42.40;;;;;;6228009;27;21733;-45
2022/04/14 11:35:07;;;;;;;;;;;23.90;42.50;;;;;;6188923;27;19927;-45
2022/04/14 11:38:11;;;;;;;;;;;23.80;42.50;;;;;;6214232;28;19949;-46
2022/04/14 11:41:27;;;;;;;;;;;24.00;42.50;;;;;;6197713;28;20008;-47
2022/04/14 11:44:31;;;;;;;;;;;23.90;42.50;;;;;;6210588;28;20906;-48
2022/04/14 11:47:33;;;;;;;;;;;24.00;42.50;;;;;;6205569;27;19927;-45
2022/04/14 11:50:36;;;;;;;;;;;23.80;42.40;;;;;;6173631;27;19985;-47
2022/04/14 11:53:38;;;;;;;;;;;23.90;42.50;;;;;;6146981;27;19978;-47
2022/04/14 11:57:01;;;;;;;;;;;23.80;42.50;;;;;;6187271;27;19927;-46
2022/04/14 12:00:10;;;;;;;;;;;23.90;42.50;;;;;;6200640;27;19931;-46
2022/04/14 12:03:13;;;;;;;;;;;23.90;42.50;;;;;;6163018;27;19928;-47
2022/04/14 12:06:16;;;;;;;;;;;23.90;42.40;;;;;;6139288;27;19977;-48
2022/04/14 12:09:19;;;;;;;;;;;23.90;42.40;;;;;;6142905;27;20050;-45
2022/04/14 12:12:21;;;;;;;;;;;23.90;42.40;;;;;;6170261;28;19928;-48
2022/04/14 12:15:23;;;;;;;;;;;23.90;43.00;;;;;;6122027;27;20830;-48
2022/04/14 12:18:24;;;;;;;;;;;23.90;42.40;;;;;;6173307;27;19927;-45
2022/04/14 12:21:27;;;;;;;;;;;23.90;42.30;;;;;;6197324;27;19928;-47
2022/04/14 12:24:29;;;;;;;;;;;23.90;42.30;;;;;;6189883;27;20062;-48
2022/04/14 12:27:34;;;;;;;;;;;23.90;42.40;;;;;;6133353;27;20138;-48
2022/04/14 12:30:41;;;;;;;;;;;24.00;42.40;;;;;;6160473;27;19934;-46
2022/04/14 12:33:53;;;;;;;;;;;24.00;42.40;;;;;;6135712;27;20062;-47
2022/04/14 12:37:18;;;;;;;;;;;24.00;42.40;;;;;;6148206;27;19981;-45
2022/04/14 12:40:24;;;;;;;;;;;24.00;42.30;;;;;;6152127;27;19964;-46
2022/04/14 12:43:28;;;;;;;;;;;24.00;42.20;;;;;;6166038;27;19928;-46
2022/04/14 12:46:34;;;;;;;;;;;24.00;42.20;;;;;;6164424;27;19971;-48
2022/04/14 12:49:35;;;;;;;;;;;24.00;42.30;;;;;;6155686;27;20909;-49
2022/04/14 12:52:37;;;;;;;;;;;23.90;42.20;;;;;;6189853;27;20050;-47
2022/04/14 12:55:39;;;;;;;;;;;24.00;42.20;;;;;;6152798;28;20002;-45
2022/04/14 12:59:00;;;;;;;;;;;24.00;42.20;;;;;;6179973;27;19928;-45
2022/04/14 13:02:06;;;;;;;;;;;24.10;42.20;;;;;;6155980;28;19927;-46
2022/04/14 13:05:09;;;;;;;;;;;24.10;42.30;;;;;;6156045;27;20042;-48
2022/04/14 13:08:11;;;;;;;;;;;24.10;42.20;;;;;;6196887;27;19931;-47
2022/04/14 13:11:28;;;;;;;;;;;24.00;42.40;;;;;;6147919;28;19981;-47
2022/04/14 13:14:31;;;;;;;;;;;24.10;42.10;;;;;;6184044;27;19927;-50
2022/04/14 13:17:53;;;;;;;;;;;24.10;42.10;;;;;;6190280;28;19928;-48
2022/04/14 13:20:55;;;;;;;;;;;24.10;42.10;;;;;;6178429;28;19928;-47
2022/04/14 13:23:57;;;;;;;;;;;24.10;42.10;;;;;;6203330;28;19928;-46
2022/04/14 13:26:59;;;;;;;;;;;24.10;42.10;;;;;;6185870;28;19927;-46
2022/04/14 13:30:01;;;;;;;;;;;24.10;42.10;;;;;;6180283;27;20012;-47
2022/04/14 13:33:03;;;;;;;;;;;25.30;42.70;;;;;;6185088;28;20425;-47
2022/04/14 13:36:05;;;;;;;;;;;24.10;42.00;;;;;;6164959;27;19927;-46
2022/04/14 13:39:07;;;;;;;;;;;24.10;42.00;;;;;;6171036;28;19928;-47
2022/04/14 13:42:08;;;;;;;;;;;24.10;42.10;;;;;;6190700;27;19935;-47
2022/04/14 13:45:11;;;;;;;;;;;24.20;42.00;;;;;;6198780;27;20042;-45
2022/04/14 13:48:12;;;;;;;;;;;24.10;42.10;;;;;;6167437;28;21937;-45
2022/04/14 13:51:14;;;;;;;;;;;24.10;42.00;;;;;;6185990;28;20305;-48
2022/04/14 13:54:16;;;;;;;;;;;24.10;42.00;;;;;;6145569;28;19928;-49
2022/04/14 13:57:17;;;;;;;;;;;24.10;42.10;;;;;;6178185;27;19934;-46
2022/04/14 14:00:22;;;;;;;;;;;24.10;41.90;;;;;;6186172;27;19934;-48
2022/04/14 14:03:24;;;;;;;;;;;24.10;41.90;;;;;;6144846;27;20830;-51
2022/04/14 14:06:26;;;;;;;;;;;24.10;41.90;;;;;;6174642;28;19935;-46
2022/04/14 14:09:27;;;;;;;;;;;24.20;41.90;;;;;;6180626;27;19928;-45
2022/04/14 14:12:30;;;;;;;;;;;24.10;41.90;;;;;;6178271;28;19938;-49
2022/04/14 14:15:32;;;;;;;;;;;24.20;42.00;;;;;;6164063;27;20995;-47
2022/04/14 14:18:33;;;;;;;;;;;24.10;41.90;;;;;;6183470;27;19930;-47
2022/04/14 14:21:35;;;;;;;;;;;24.20;41.90;;;;;;6197003;27;19928;-48
2022/04/14 14:24:37;;;;;;;;;;;24.10;41.80;;;;;;6181461;27;20026;-47
2022/04/14 14:27:38;;;;;;;;;;;24.20;41.80;;;;;;6153658;27;20103;-48
2022/04/14 14:30:42;;;;;;;;;;;24.20;41.80;;;;;;6150388;27;19935;-48
2022/04/14 14:33:43;;;;;;;;;;;24.20;41.80;;;;;;6169773;28;19928;-49
2022/04/14 14:36:47;;;;;;;;;;;24.10;41.70;;;;;;6155787;28;19927;-51
2022/04/14 14:39:48;;;;;;;;;;;24.20;41.90;;;;;;6163342;27;19989;-50
2022/04/14 14:42:50;;;;;;;;;;;24.10;41.70;;;;;;6184052;27;20034;-48
2022/04/14 14:45:52;;;;;;;;;;;24.20;41.80;;;;;;6164929;27;20009;-48
2022/04/14 14:48:54;;;;;;;;;;;24.20;41.80;;;;;;6165205;27;20064;-47
2022/04/14 14:51:56;;;;;;;;;;;24.20;41.80;;;;;;6165263;27;19928;-50
2022/04/14 14:54:57;;;;;;;;;;;24.30;41.90;;;;;;6154053;28;19927;-46
2022/04/14 15:01:15;;;;;;;;;;;24.20;41.80;;;;;;6174393;27;19935;-46
2022/04/14 15:04:17;;;;;;;;;;;24.20;41.80;;;;;;6095504;28;19927;-47
2022/04/14 15:07:18;;;;;;;;;;;24.20;41.80;;;;;;6154102;27;19928;-49
2022/04/14 15:10:21;;;;;;;;;;;24.20;41.80;;;;;;6149138;27;20851;-46
2022/04/14 15:13:22;;;;;;;;;;;24.30;41.80;;;;;;6160540;27;20282;-47
2022/04/14 15:16:24;;;;;;;;;;;24.30;41.80;;;;;;6152287;28;19935;-48
2022/04/14 15:19:26;;;;;;;;;;;24.20;41.70;;;;;;6145070;27;19997;-47
2022/04/14 15:22:27;;;;;;;;;;;24.20;41.70;;;;;;6143438;27;19935;-47
2022/04/14 15:25:29;;;;;;;;;;;24.20;41.70;;;;;;6161846;27;20243;-48
2022/04/14 15:28:31;;;;;;;;;;;24.20;41.70;;;;;;6179027;27;20004;-48
2022/04/14 15:31:33;;;;;;;;;;;24.20;41.70;;;;;;6171920;28;19928;-50
2022/04/14 15:34:34;;;;;;;;;;;24.20;42.20;;;;;;6167953;28;21034;-48
2022/04/14 15:37:36;;;;;;;;;;;24.30;41.70;;;;;;6182629;27;20180;-52
2022/04/14 15:40:37;;;;;;;;;;;24.20;41.60;;;;;;6177879;27;20025;-47
2022/04/14 15:43:39;;;;;;;;;;;24.20;41.60;;;;;;6194325;27;19935;-48
2022/04/14 15:46:41;;;;;;;;;;;24.20;41.60;;;;;;6178326;27;20004;-48
2022/04/14 15:49:42;;;;;;;;;;;24.20;41.50;;;;;;6186281;27;19983;-46
2022/04/14 15:52:44;;;;;;;;;;;24.20;42.10;;;;;;6164974;28;19935;-49
2022/04/14 15:55:46;;;;;;;;;;;24.30;41.60;;;;;;6139983;28;21190;-50
2022/04/14 15:58:48;;;;;;;;;;;24.30;41.50;;;;;;6180567;27;20022;-46
2022/04/14 16:01:50;;;;;;;;;;;24.30;41.60;;;;;;6183917;27;21625;-46
2022/04/14 16:04:53;;;;;;;;;;;24.30;41.50;;;;;;6181208;28;19933;-50
2022/04/14 16:07:54;;;;;;;;;;;24.30;41.50;;;;;;6212548;27;20978;-48
2022/04/14 16:14:07;;;;;;;;;;;24.30;41.50;;;;;;6214139;27;19928;-46
2022/04/14 16:17:10;;;;;;;;;;;24.30;41.50;;;;;;6234119;27;20191;-49
2022/04/14 16:20:11;;;;;;;;;;;24.30;41.50;;;;;;6229794;27;20042;-51
2022/04/14 16:23:13;;;;;;;;;;;24.30;41.50;;;;;;6228004;28;19927;-51
2022/04/14 16:26:14;;;;;;;;;;;24.30;41.50;;;;;;6225566;28;19951;-49
2022/04/14 16:29:16;;;;;;;;;;;24.30;41.50;;;;;;6216789;28;21091;-48
2022/04/14 16:32:18;;;;;;;;;;;24.20;41.40;;;;;;6224608;27;20402;-49
2022/04/14 16:35:19;;;;;;;;;;;24.30;41.50;;;;;;6245682;27;21767;-53
2022/04/14 16:38:20;;;;;;;;;;;24.30;41.50;;;;;;6227296;27;20142;-51
2022/04/14 16:41:22;;;;;;;;;;;24.30;41.50;;;;;;6234948;27;20323;-48
2022/04/14 16:44:23;;;;;;;;;;;24.50;41.60;;;;;;6251711;27;19931;-48
2022/04/14 16:47:26;;;;;;;;;;;24.30;41.50;;;;;;6234542;27;19962;-49
2022/04/14 16:50:27;;;;;;;;;;;24.30;41.40;;;;;;6251077;27;20718;-47
2022/04/14 16:53:29;;;;;;;;;;;24.30;41.40;;;;;;6242771;27;20956;-48
2022/04/14 16:56:30;;;;;;;;;;;24.30;41.40;;;;;;6222937;28;20005;-49
2022/04/14 16:59:32;;;;;;;;;;;24.30;41.30;;;;;;6254323;27;19996;-50
2022/04/14 17:02:34;;;;;;;;;;;24.30;41.30;;;;;;6245049;28;20950;-49
2022/04/14 17:05:35;;;;;;;;;;;24.30;41.30;;;;;;6241764;28;19932;-49
2022/04/14 17:08:37;;;;;;;;;;;24.30;41.30;;;;;;6231246;28;19927;-48
2022/04/14 17:11:38;;;;;;;;;;;24.30;41.90;;;;;;6240575;28;19930;-48
2022/04/14 17:14:39;;;;;;;;;;;24.20;41.30;;;;;;6244996;27;19928;-51
2022/04/14 17:17:41;;;;;;;;;;;24.30;41.30;;;;;;6241683;28;20954;-48
2022/04/14 17:20:42;;;;;;;;;;;24.20;41.20;;;;;;6249679;28;19931;-48
2022/04/14 17:26:58;;;;;;;;;;;24.30;41.30;;;;;;6235725;27;20949;-50
2022/04/14 17:29:59;;;;;;;;;;;24.30;41.20;;;;;;6227263;27;20345;-48
2022/04/14 17:33:02;;;;;;;;;;;24.30;41.20;;;;;;6232595;28;20135;-47
2022/04/14 17:36:04;;;;;;;;;;;24.40;41.30;;;;;;6237130;27;20691;-47
2022/04/14 17:39:06;;;;;;;;;;;24.20;41.20;;;;;;6230290;27;20116;-47
2022/04/14 17:42:07;;;;;;;;;;;24.30;41.30;;;;;;6246822;27;20284;-49
2022/04/14 17:45:09;;;;;;;;;;;24.20;41.20;;;;;;6240056;28;20872;-47
2022/04/14 17:48:11;;;;;;;;;;;24.30;41.10;;;;;;6249748;28;19933;-48
2022/04/14 17:51:12;;;;;;;;;;;24.30;41.10;;;;;;6224667;28;19927;-50